Time;durP1;ratioP1;P1;durP2;ratioP2;P2;SDS_P1;SDS_P2;PMS_P1;PMS_P2;Temp;Humidity;BMP_temperature;BMP_pressure;BME280_temperature;BME280_humidity;BME280_pressure;Samples;Min_cycle;Max_cycle;Signal;HPM_P1;HPM_P2
2022/08/17 00:01:59;;;;;;;21.73;14.35;;;;;;;19.47;60.54;100386.44;4736762;30;20052;-79
2022/08/17 00:04:25;;;;;;;22.52;11.77;;;;;;;19.38;60.36;100383.25;4750593;30;20478;-78
2022/08/17 00:06:52;;;;;;;18.98;11.27;;;;;;;19.39;60.41;100390.25;4751282;30;21061;-79
2022/08/17 00:09:18;;;;;;;16.90;9.80;;;;;;;19.37;60.85;100385.94;4735749;30;20058;-78
2022/08/17 00:11:45;;;;;;;26.13;11.02;;;;;;;19.37;60.77;100385.94;4723739;30;21466;-79
2022/08/17 00:14:15;;;;;;;21.92;10.35;;;;;;;19.34;61.01;100380.75;4722097;30;20647;-78
2022/08/17 00:16:46;;;;;;;22.20;10.07;;;;;;;19.37;60.91;100388.56;4750897;30;20078;-78
2022/08/17 00:19:14;;;;;;;13.90;9.68;;;;;;;19.39;60.99;100386.75;4749998;30;20068;-78
2022/08/17 00:21:44;;;;;;;14.70;9.75;;;;;;;19.39;60.75;100389.38;4735637;30;20043;-78
2022/08/17 00:24:10;;;;;;;22.30;10.27;;;;;;;19.27;60.79;100378.38;4736052;30;20052;-78
2022/08/17 00:26:36;;;;;;;16.30;10.10;;;;;;;19.31;60.79;100380.91;4734534;30;20135;-77
2022/08/17 00:29:04;;;;;;;19.25;10.88;;;;;;;19.32;60.90;100394.03;4749450;30;20044;-79
2022/08/17 00:31:32;;;;;;;12.05;10.10;;;;;;;19.31;60.82;100389.66;4735850;30;20051;-78
2022/08/17 00:33:58;;;;;;;15.65;10.25;;;;;;;19.27;60.75;100386.28;4751058;30;20151;-79
2022/08/17 00:36:24;;;;;;;15.18;9.48;;;;;;;19.12;60.88;100368.34;4751596;30;20169;-77
2022/08/17 00:38:50;;;;;;;15.52;10.27;;;;;;;19.22;61.14;100385.56;4751603;30;20053;-78
2022/08/17 00:41:21;;;;;;;15.38;10.13;;;;;;;19.16;60.97;100382.31;4764813;30;20354;-79
2022/08/17 00:43:51;;;;;;;13.25;9.18;;;;;;;19.20;61.00;100383.91;4740670;30;20048;-78
2022/08/17 00:46:27;;;;;;;13.95;9.35;;;;;;;19.18;61.06;100383.97;4758154;30;20078;-78
2022/08/17 00:48:53;;;;;;;12.30;10.25;;;;;;;19.14;61.02;100378.84;4737792;30;20131;-78
2022/08/17 00:51:42;;;;;;;13.90;10.13;;;;;;;19.15;61.05;100381.41;4754250;30;20181;-78
2022/08/17 00:54:28;;;;;;;12.25;9.32;;;;;;;19.14;61.13;100390.25;4746420;30;20572;-79
2022/08/17 00:57:07;;;;;;;10.68;9.05;;;;;;;19.11;61.13;100385.06;4753282;30;20532;-79
2022/08/17 00:59:38;;;;;;;11.63;9.63;;;;;;;19.07;61.15;100379.06;4739374;30;20105;-78
2022/08/17 01:02:07;;;;;;;12.07;9.35;;;;;;;19.10;61.12;100383.34;4737505;30;21515;-79
2022/08/17 01:04:35;;;;;;;11.60;9.27;;;;;;;19.10;61.55;100378.06;4752321;30;20102;-79
2022/08/17 01:07:04;;;;;;;13.15;10.15;;;;;;;19.10;61.73;100372.81;4754809;30;20052;-78
2022/08/17 01:09:31;;;;;;;11.35;9.90;;;;;;;19.13;61.45;100371.84;4752098;30;20040;-77
2022/08/17 01:11:57;;;;;;;12.70;9.88;;;;;;;19.12;61.55;100373.63;4736770;30;20111;-79
2022/08/17 01:14:24;;;;;;;10.93;9.32;;;;;;;19.18;61.53;100376.03;4722066;30;20040;-79
2022/08/17 01:16:53;;;;;;;13.65;9.73;;;;;;;19.19;61.42;100375.13;4737331;30;20048;-79
2022/08/17 01:19:36;;;;;;;12.85;10.07;;;;;;;19.16;61.51;100367.31;4751333;30;20041;-79
2022/08/17 01:22:08;;;;;;;14.20;9.65;;;;;;;19.21;61.43;100375.94;4735961;30;20044;-78
2022/08/17 01:24:37;;;;;;;12.77;9.68;;;;;;;19.15;61.39;100362.13;4736532;30;20052;-78
2022/08/17 01:27:04;;;;;;;14.18;10.60;;;;;;;19.18;61.36;100368.13;4752828;30;20047;-78
2022/08/17 01:29:30;;;;;;;11.35;10.05;;;;;;;19.17;61.49;100368.19;4738390;30;20050;-80
2022/08/17 01:32:00;;;;;;;11.98;9.95;;;;;;;19.15;61.69;100367.38;4753234;30;20493;-79
2022/08/17 01:34:26;;;;;;;11.40;10.20;;;;;;;19.11;61.77;100369.25;4750379;30;20068;-78
2022/08/17 01:36:54;;;;;;;14.00;9.90;;;;;;;19.04;61.72;100365.13;4742670;30;20058;-77
2022/08/17 01:39:28;;;;;;;11.57;9.18;;;;;;;19.08;61.74;100364.13;4753546;30;20044;-79
2022/08/17 01:42:03;;;;;;;13.90;10.65;;;;;;;19.07;61.84;100375.56;4736911;30;20139;-79
2022/08/17 01:44:29;;;;;;;12.40;10.20;;;;;;;19.05;61.97;100369.50;4735665;30;20611;-78
2022/08/17 01:47:02;;;;;;;10.93;9.73;;;;;;;19.00;61.91;100374.91;4752444;30;20048;-79
2022/08/17 01:49:28;;;;;;;11.65;9.40;;;;;;;18.89;62.11;100362.06;4741812;30;20052;-78
2022/08/17 01:52:03;;;;;;;11.57;10.02;;;;;;;18.92;61.98;100374.28;4724204;30;21060;-80
2022/08/17 01:54:28;;;;;;;;;;;;;;;18.90;62.09;100370.84;4737347;30;20151;-78
2022/08/17 01:56:54;;;;;;;12.45;9.65;;;;;;;18.87;62.00;100368.31;4724933;30;20029;-79
2022/08/17 01:59:20;;;;;;;10.82;9.73;;;;;;;18.74;62.09;100365.22;4744319;30;20040;-80
2022/08/17 02:01:50;;;;;;;13.38;9.95;;;;;;;18.74;62.37;100368.75;4738341;30;20048;-79
2022/08/17 02:04:16;;;;;;;12.32;9.98;;;;;;;18.74;62.41;100373.13;4721142;30;20162;-80
2022/08/17 02:06:42;;;;;;;12.52;10.30;;;;;;;18.73;62.43;100377.56;4737289;30;20047;-77
2022/08/17 02:09:10;;;;;;;12.05;9.38;;;;;;;18.70;62.73;100376.78;4742546;30;20429;-78
2022/08/17 02:11:38;;;;;;;12.43;9.15;;;;;;;18.66;62.90;100381.31;4721377;30;20055;-79
2022/08/17 02:14:07;;;;;;;14.18;9.45;;;;;;;18.62;63.18;100377.94;4752355;30;20049;-79
2022/08/17 02:16:39;;;;;;;13.48;9.80;;;;;;;18.62;63.00;100375.28;4748375;30;20574;-80
2022/08/17 02:19:08;;;;;;;10.80;8.60;;;;;;;18.62;63.19;100375.28;4758476;30;20062;-78
2022/08/17 02:21:36;;;;;;;11.52;9.82;;;;;;;18.62;63.08;100385.84;4762990;30;20052;-78
2022/08/17 02:24:07;;;;;;;10.38;9.27;;;;;;;18.62;63.03;100380.56;4739535;30;20052;-78
2022/08/17 02:26:33;;;;;;;11.48;9.50;;;;;;;18.57;63.31;100364.03;4756818;30;20113;-78
2022/08/17 02:28:59;;;;;;;11.18;9.38;;;;;;;18.61;63.47;100372.69;4754023;30;20566;-79
2022/08/17 02:31:25;;;;;;;10.15;9.05;;;;;;;18.57;63.31;100363.16;4737571;30;20051;-78
2022/08/17 02:33:51;;;;;;;10.68;9.57;;;;;;;18.57;63.24;100363.16;4755249;30;20048;-78
2022/08/17 02:36:17;;;;;;;12.55;9.65;;;;;;;18.61;63.31;100364.78;4760040;30;20054;-78
2022/08/17 02:38:44;;;;;;;12.15;9.57;;;;;;;18.59;63.31;100363.97;4774976;29;20207;-79
2022/08/17 02:41:11;;;;;;;11.80;9.27;;;;;;;18.69;63.44;100375.06;4746147;30;20047;-78
2022/08/17 02:43:38;;;;;;;11.07;9.90;;;;;;;18.70;63.35;100382.94;4761170;30;20051;-78
2022/08/17 02:46:04;;;;;;;12.57;9.60;;;;;;;18.64;63.28;100372.59;4720698;30;20071;-79
2022/08/17 02:48:30;;;;;;;12.73;9.45;;;;;;;18.68;63.54;100366.31;4752442;30;20060;-79
2022/08/17 02:50:57;;;;;;;11.65;9.45;;;;;;;18.76;63.64;100371.31;4753040;30;20044;-78
2022/08/17 02:53:23;;;;;;;13.38;9.77;;;;;;;18.69;63.65;100353.97;4736311;30;20080;-79
2022/08/17 02:55:49;;;;;;;19.17;10.00;;;;;;;18.77;63.77;100365.97;4751966;30;20051;-77
2022/08/17 02:58:16;;;;;;;11.63;9.20;;;;;;;18.77;63.53;100359.84;4735202;30;20055;-78
2022/08/17 03:00:47;;;;;;;13.13;9.10;;;;;;;18.81;63.56;100366.75;4734906;30;20527;-79
2022/08/17 03:03:19;;;;;;;12.68;9.02;;;;;;;18.87;63.40;100374.44;4735231;30;20092;-78
2022/08/17 03:05:47;;;;;;;13.43;9.82;;;;;;;18.85;63.36;100363.09;4751185;30;20230;-79
2022/08/17 03:08:14;;;;;;;12.68;9.43;;;;;;;18.87;63.00;100363.03;4751327;30;20055;-79
2022/08/17 03:10:41;;;;;;;11.40;8.88;;;;;;;18.88;63.43;100360.34;4734938;30;20820;-79
2022/08/17 03:13:08;;;;;;;10.77;9.18;;;;;;;18.90;63.48;100362.94;4734544;30;20047;-78
2022/08/17 03:15:35;;;;;;;13.50;8.70;;;;;;;18.89;63.27;100362.06;4720643;30;20105;-77
2022/08/17 03:18:02;;;;;;;11.40;9.60;;;;;;;19.03;63.46;100361.63;4735661;30;20052;-80
2022/08/17 03:20:31;;;;;;;13.25;8.70;;;;;;;19.19;63.41;100369.84;4711877;30;20148;-78
2022/08/17 03:22:58;;;;;;;12.90;9.02;;;;;;;19.25;63.02;100363.50;4750565;30;20059;-79
2022/08/17 03:25:29;;;;;;;13.60;9.30;;;;;;;19.28;62.88;100350.19;4736487;30;20092;-78
2022/08/17 03:27:55;;;;;;;17.02;9.45;;;;;;;19.44;62.74;100362.81;4754902;30;20077;-78
2022/08/17 03:30:24;;;;;;;14.00;10.10;;;;;;;19.55;62.45;100360.66;4771529;30;20040;-78
2022/08/17 03:32:51;;;;;;;19.15;10.73;;;;;;;19.55;61.97;100355.38;4758186;30;20100;-78
2022/08/17 03:35:20;;;;;;;13.77;10.80;;;;;;;19.64;61.71;100367.38;4728209;30;20094;-78
2022/08/17 03:37:46;;;;;;;14.82;10.38;;;;;;;19.62;61.98;100361.28;4737549;30;20048;-78
2022/08/17 03:40:13;;;;;;;16.02;10.25;;;;;;;19.62;61.62;100369.19;4751800;30;20437;-78
2022/08/17 03:42:40;;;;;;;15.93;10.85;;;;;;;19.72;61.59;100354.75;4752022;30;20062;-79
2022/08/17 03:45:11;;;;;;;18.00;11.52;;;;;;;19.91;61.14;100369.91;4752775;30;20066;-78
2022/08/17 03:58:45;;;;;;;17.52;12.70;;;;;;;20.31;59.87;100373.59;4753410;30;20044;-78
2022/08/17 04:01:12;;;;;;;15.60;11.20;;;;;;;20.35;59.88;100369.03;4736673;30;20147;-80
2022/08/17 04:03:38;;;;;;;15.68;12.05;;;;;;;20.49;59.15;100372.00;4721743;30;20051;-79
2022/08/17 04:06:05;;;;;;;14.57;11.43;;;;;;;20.60;59.37;100379.50;4734460;30;20051;-80
2022/08/17 04:08:31;;;;;;;14.48;11.88;;;;;;;20.57;59.06;100363.75;4736999;30;20048;-80
2022/08/17 04:10:59;;;;;;;16.63;11.70;;;;;;;20.81;58.84;100364.53;4743289;30;20509;-81
2022/08/17 04:13:26;;;;;;;13.13;11.32;;;;;;;20.95;58.36;100353.34;4751406;30;20456;-79
2022/08/17 04:15:53;;;;;;;18.10;12.55;;;;;;;21.25;57.95;100360.00;4734876;30;20613;-80
2022/08/17 04:18:19;;;;;;;17.63;12.63;;;;;;;21.54;57.46;100358.69;4736581;30;20061;-80
2022/08/17 04:20:45;;;;;;;15.05;13.15;;;;;;;21.80;57.12;100368.13;4735420;30;20139;-80
2022/08/17 04:23:17;;;;;;;17.15;13.07;;;;;;;22.06;55.92;100357.19;4751382;30;20056;-78
2022/08/17 04:25:50;;;;;;;17.52;13.90;;;;;;;22.10;55.31;100366.72;4751375;30;20456;-81
2022/08/17 04:28:19;;;;;;;17.73;13.93;;;;;;;22.14;55.19;100349.75;4737939;30;20063;-79
2022/08/17 04:30:46;;;;;;;16.15;14.30;;;;;;;22.46;54.80;100354.44;4755847;30;21002;-79
2022/08/17 04:33:19;;;;;;;19.00;14.48;;;;;;;22.52;54.68;100362.06;4753928;30;20171;-78
2022/08/17 04:35:52;;;;;;;23.13;15.32;;;;;;;22.61;54.44;100356.31;4754262;30;20398;-78
2022/08/17 04:38:21;;;;;;;18.67;15.73;;;;;;;22.97;54.22;100350.03;4723482;30;20048;-76
2022/08/17 04:43:37;;;;;;;18.63;14.43;;;;;;;23.87;52.83;100331.97;4740129;30;20498;-77
2022/08/17 04:46:06;;;;;;;21.88;16.33;;;;;;;24.02;51.24;100338.25;4738965;30;20040;-76
2022/08/17 04:48:51;;;;;;;25.63;17.95;;;;;;;24.11;50.55;100344.00;4752454;30;20047;-76
2022/08/17 04:51:24;;;;;;;22.13;18.17;;;;;;;24.36;50.21;100343.44;4753603;30;20043;-77
2022/08/17 04:53:53;;;;;;;23.75;18.38;;;;;;;24.37;49.60;100345.16;4723751;30;20148;-79
2022/08/17 04:56:20;;;;;;;24.45;18.67;;;;;;;24.41;49.69;100344.03;4739062;30;20105;-77
2022/08/17 04:58:49;;;;;;;26.90;19.55;;;;;;;24.41;49.58;100340.50;4715402;30;20051;-79
2022/08/17 05:01:16;;;;;;;24.55;18.80;;;;;;;24.50;49.14;100332.00;4758038;30;20048;-77
2022/08/17 05:03:43;;;;;;;28.33;19.77;;;;;;;24.70;48.71;100349.44;4754162;30;20048;-77
2022/08/17 05:06:09;;;;;;;28.35;20.60;;;;;;;25.02;48.34;100333.38;4754255;30;20574;-78
2022/08/17 05:08:35;;;;;;;26.80;20.33;;;;;;;25.26;47.53;100330.13;4738345;30;20048;-74
2022/08/17 05:11:01;;;;;;;24.20;19.25;;;;;;;25.46;46.91;100314.75;4753995;30;20067;-76
2022/08/17 05:13:31;;;;;;;30.50;19.55;;;;;;;25.67;46.61;100323.19;4753440;30;21032;-77
2022/08/17 05:16:03;;;;;;;30.65;21.00;;;;;;;25.96;45.79;100315.09;4744195;30;20101;-76
2022/08/17 05:18:30;;;;;;;35.35;21.83;;;;;;;26.37;45.66;100324.84;4709181;30;20048;-75
2022/08/17 05:20:58;;;;;;;33.80;22.35;;;;;;;26.65;44.59;100319.50;4751772;30;20063;-78
2022/08/17 05:23:26;;;;;;;28.10;23.73;;;;;;;26.82;43.63;100319.22;4755792;30;20071;-77
2022/08/17 05:25:54;;;;;;;34.30;23.42;;;;;;;27.18;43.81;100311.41;4753932;30;20455;-78
2022/08/17 05:28:21;;;;;;;33.70;21.77;;;;;;;28.14;42.50;100309.03;4752477;30;20092;-77
2022/08/17 05:30:48;;;;;;;29.90;21.92;;;;;;;29.62;40.13;100288.66;4751068;30;20050;-78
2022/08/17 05:33:18;;;;;;;29.00;23.33;;;;;;;31.01;38.49;100288.72;4737890;30;20047;-79
2022/08/17 05:35:46;;;;;;;30.98;23.58;;;;;;;32.23;35.79;100285.06;4753014;30;20109;-77
2022/08/17 05:38:14;;;;;;;29.88;22.63;;;;;;;33.03;34.22;100285.59;4750815;30;20062;-77
2022/08/17 05:40:41;;;;;;;29.73;23.23;;;;;;;33.41;32.26;100292.84;4749936;30;20048;-76
2022/08/17 05:43:23;;;;;;;25.20;21.55;;;;;;;34.48;31.74;100291.19;4756364;30;20052;-76
2022/08/17 05:46:10;;;;;;;28.08;22.55;;;;;;;35.34;29.29;100299.44;4722308;30;20150;-79
2022/08/17 05:48:42;;;;;;;33.85;22.58;;;;;;;35.66;28.77;100289.72;4753032;30;20060;-78
2022/08/17 05:51:29;;;;;;;30.67;22.38;;;;;;;36.70;28.07;100291.97;4751496;30;20133;-78
2022/08/17 05:54:20;;;;;;;25.98;20.80;;;;;;;37.66;26.40;100280.22;4751979;30;20060;-76
2022/08/17 05:56:59;;;;;;;29.25;20.67;;;;;;;38.41;25.73;100284.09;4751769;30;20047;-76
2022/08/17 05:59:43;;;;;;;24.13;19.42;;;;;;;39.27;24.90;100288.22;4736505;30;20972;-76
2022/08/17 06:02:27;;;;;;;28.63;20.60;;;;;;;40.00;23.38;100290.06;4752077;30;20059;-77
2022/08/17 06:05:25;;;;;;;28.88;17.75;;;;;;;40.12;22.89;100282.22;4751950;30;20058;-77
2022/08/17 06:08:11;;;;;;;24.10;18.17;;;;;;;40.50;21.79;100291.97;4751526;30;20051;-79
2022/08/17 06:10:54;;;;;;;21.83;17.98;;;;;;;40.80;21.00;100281.69;4752932;30;20113;-78
2022/08/17 06:13:54;;;;;;;24.67;17.55;;;;;;;40.56;20.66;100287.59;4750696;30;20032;-77
2022/08/17 06:16:26;;;;;;;28.35;16.90;;;;;;;40.48;21.40;100286.72;4739101;30;20069;-76
2022/08/17 06:18:59;;;;;;;24.90;15.63;;;;;;;41.17;20.98;100292.38;4758042;30;20044;-79
2022/08/17 06:21:31;;;;;;;19.80;15.13;;;;;;;41.96;19.34;100298.28;4768211;30;20044;-78
2022/08/17 06:24:26;;;;;;;21.35;14.90;;;;;;;42.30;19.25;100301.03;4764414;30;20051;-78
2022/08/17 06:26:55;;;;;;;17.77;15.70;;;;;;;41.09;19.74;100292.53;4737897;30;20078;-76
2022/08/17 06:29:34;;;;;;;22.15;14.23;;;;;;;41.23;20.10;100302.50;4765753;30;20043;-77
2022/08/17 06:32:01;;;;;;;22.10;14.90;;;;;;;42.14;18.74;100286.75;4749918;30;20134;-77
2022/08/17 06:34:28;;;;;;;17.55;14.25;;;;;;;42.42;19.37;100295.78;4753118;30;20055;-76
2022/08/17 06:37:20;;;;;;;17.83;13.95;;;;;;;43.45;18.28;100294.19;4772907;30;20056;-78
2022/08/17 06:40:29;;;;;;;23.58;14.55;;;;;;;43.45;17.93;100301.59;4762351;30;20160;-78
2022/08/17 06:43:24;;;;;;;18.15;13.23;;;;;;;44.78;17.09;100295.25;4775461;29;20071;-76
2022/08/17 06:46:00;;;;;;;14.07;12.70;;;;;;;45.27;16.74;100279.69;4758236;30;20062;-78
2022/08/17 06:48:34;;;;;;;18.25;12.68;;;;;;;45.90;16.24;100289.56;4754049;30;20052;-78
2022/08/17 06:51:28;;;;;;;18.23;12.55;;;;;;;46.12;15.64;100281.63;4752354;30;20512;-77
2022/08/17 06:54:06;;;;;;;13.98;12.50;;;;;;;46.41;15.46;100277.06;4742714;30;20064;-80
2022/08/17 06:56:53;;;;;;;17.53;13.37;;;;;;;45.99;14.93;100291.72;4751501;30;20048;-79
2022/08/17 06:59:25;;;;;;;14.35;12.35;;;;;;;45.32;15.35;100283.66;4739265;30;20327;-77
2022/08/17 07:01:54;;;;;;;15.82;12.32;;;;;;;46.50;15.27;100274.78;4751120;30;20044;-77
2022/08/17 07:04:25;;;;;;;17.27;12.07;;;;;;;47.54;14.22;100277.72;4750596;30;20455;-77
2022/08/17 07:08:00;;;;;;;16.02;12.35;;;;;;;46.93;12.86;100272.66;4735836;30;20421;-79
2022/08/17 07:09:58;;;;;;;20.50;11.43;;;;;;;46.99;13.72;100277.22;4752327;30;20052;-79
2022/08/17 07:12:36;;;;;;;22.88;12.57;;;;;;;46.60;14.59;100271.44;4768042;29;20048;-79
2022/08/17 07:15:32;;;;;;;20.80;11.77;;;;;;;47.93;12.67;100263.19;4760614;30;20078;-77
2022/08/17 07:17:59;;;;;;;23.02;11.70;;;;;;;48.89;13.06;100260.41;4751612;30;20040;-79
2022/08/17 07:20:30;;;;;;;18.00;11.77;;;;;;;49.29;12.49;100265.56;4721513;30;20116;-78
2022/08/17 07:23:17;;;;;;;23.30;11.50;;;;;;;47.96;12.28;100262.72;4752850;30;20052;-77
2022/08/17 07:25:43;;;;;;;21.02;11.63;;;;;;;48.18;13.11;100251.78;4751202;30;20076;-79
2022/08/17 07:28:11;;;;;;;20.48;10.82;;;;;;;48.62;12.45;100259.25;4749900;30;20047;-79
2022/08/17 07:30:48;;;;;;;20.77;11.30;;;;;;;47.80;12.14;100256.09;4750972;30;20055;-80
2022/08/17 07:33:21;;;;;;;22.10;10.02;;;;;;;48.35;12.64;100261.94;4734646;30;20135;-77
2022/08/17 07:35:48;;;;;;;12.52;9.02;;;;;;;48.24;12.71;100249.91;4742066;30;20056;-78
2022/08/17 07:38:32;;;;;;;16.55;9.50;;;;;;;48.66;11.83;100252.13;4735486;30;20106;-77
2022/08/17 07:41:03;;;;;;;11.35;8.52;;;;;;;48.73;12.09;100248.38;4751308;30;20051;-79
2022/08/17 07:43:41;;;;;;;12.25;8.85;;;;;;;48.70;11.91;100247.81;4735370;30;20513;-79
2022/08/17 07:49:14;;;;;;;10.23;8.13;;;;;;;48.11;11.62;100229.88;4721027;30;20106;-77
2022/08/17 07:51:41;;;;;;;12.70;7.72;;;;;;;48.56;11.58;100235.44;4735593;30;20051;-79
2022/08/17 07:54:21;;;;;;;13.27;8.20;;;;;;;48.45;11.33;100234.50;4751036;30;20063;-78
2022/08/17 07:56:53;;;;;;;17.67;8.05;;;;;;;48.91;11.53;100230.63;4749063;30;20412;-77
2022/08/17 07:59:25;;;;;;;13.05;7.53;;;;;;;48.98;11.59;100236.78;4752888;30;20130;-77
2022/08/17 08:02:03;;;;;;;9.60;6.60;;;;;;;47.84;11.91;100232.47;4751509;30;20075;-77
2022/08/17 08:04:35;;;;;;;11.55;6.95;;;;;;;47.25;11.83;100233.69;4750751;30;20418;-79
2022/08/17 08:07:11;;;;;;;8.55;6.13;;;;;;;47.60;12.27;100229.91;4735110;30;20040;-79
2022/08/17 08:09:43;;;;;;;10.82;6.40;;;;;;;47.97;12.12;100225.81;4734159;30;20044;-80
2022/08/17 08:12:28;;;;;;;10.90;6.63;;;;;;;48.18;11.78;100237.97;4733581;30;20078;-78
2022/08/17 08:15:02;;;;;;;10.88;6.50;;;;;;;47.33;12.07;100235.19;4734238;30;20047;-79
2022/08/17 08:17:35;;;;;;;8.63;6.60;;;;;;;47.27;11.51;100225.16;4749942;30;20044;-80
2022/08/17 08:20:08;;;;;;;9.48;6.30;;;;;;;46.76;12.42;100232.16;4749883;30;20505;-81
2022/08/17 08:23:14;;;;;;;15.60;6.60;;;;;;;46.53;12.61;100226.72;4751365;30;20052;-78
2022/08/17 08:25:59;;;;;;;8.25;5.43;;;;;;;46.13;12.86;100225.53;4740594;30;20510;-78
2022/08/17 08:28:51;;;;;;;8.95;5.45;;;;;;;46.31;13.29;100230.91;4752223;30;20242;-78
2022/08/17 08:31:36;;;;;;;10.40;6.10;;;;;;;47.77;11.98;100226.31;4755201;30;20425;-79
2022/08/17 08:34:22;;;;;;;9.90;4.75;;;;;;;48.89;10.58;100227.28;4738234;30;20052;-80
2022/08/17 08:37:14;;;;;;;11.75;4.70;;;;;;;47.16;12.08;100224.09;4735259;30;20058;-80
2022/08/17 08:40:09;;;;;;;6.28;4.63;;;;;;;47.25;11.83;100214.41;4749645;30;20036;-79
2022/08/17 08:42:55;;;;;;;6.38;4.35;;;;;;;48.45;11.73;100220.69;4751327;30;20055;-79
2022/08/17 08:45:47;;;;;;;11.95;5.18;;;;;;;49.55;10.50;100213.34;4773550;29;20559;-78
2022/08/17 08:48:44;;;;;;;8.80;4.75;;;;;;;49.66;10.28;100208.72;4742393;30;20048;-77
2022/08/17 08:51:16;;;;;;;9.13;4.70;;;;;;;48.77;10.85;100210.91;4733315;30;20102;-79
2022/08/17 08:53:51;;;;;;;5.50;4.07;;;;;;;47.93;10.89;100211.69;4734486;30;20067;-78
2022/08/17 08:56:33;;;;;;;11.45;4.15;;;;;;;48.16;11.24;100207.06;4750280;30;20052;-77
2022/08/17 08:59:16;;;;;;;8.85;4.00;;;;;;;48.35;10.94;100204.03;4750350;30;20046;-78
2022/08/17 09:02:27;;;;;;;8.23;4.00;;;;;;;48.89;10.20;100213.50;4750346;30;20048;-78
2022/08/17 09:05:27;;;;;;;8.95;4.10;;;;;;;47.64;10.87;100202.69;4749844;30;20075;-76
2022/08/17 09:08:18;;;;;;;7.65;4.13;;;;;;;46.53;11.47;100196.47;4742529;30;20056;-76
2022/08/17 09:10:51;;;;;;;6.57;3.42;;;;;;;46.04;11.66;100200.31;4754815;30;20068;-78
2022/08/17 09:13:53;;;;;;;7.63;3.67;;;;;;;46.21;11.66;100202.38;4743729;30;20060;-77
2022/08/17 09:16:28;;;;;;;9.55;3.92;;;;;;;46.01;11.54;100198.06;4765864;30;20047;-80
2022/08/17 09:19:07;;;;;;;10.45;3.45;;;;;;;45.41;12.40;100195.22;4754664;30;20417;-78
2022/08/17 09:21:45;;;;;;;8.02;3.72;;;;;;;46.26;12.00;100191.47;4724443;30;20332;-78
2022/08/17 09:24:30;;;;;;;5.85;3.40;;;;;;;46.99;11.45;100191.88;4752868;30;20048;-78
2022/08/17 09:27:19;;;;;;;10.40;3.53;;;;;;;47.78;11.26;100183.91;4738794;30;20055;-80
2022/08/17 09:29:49;;;;;;;7.47;3.60;;;;;;;49.20;10.35;100181.56;4722972;30;20113;-80
2022/08/17 09:32:21;;;;;;;7.13;3.58;;;;;;;50.39;9.86;100198.97;4755325;30;20055;-78
2022/08/17 09:35:00;;;;;;;7.63;3.53;;;;;;;48.75;10.23;100196.53;4752314;30;20206;-82
2022/08/17 09:37:48;;;;;;;10.52;3.83;;;;;;;48.18;10.23;100185.59;4737999;30;20052;-79
2022/08/17 09:40:25;;;;;;;5.13;3.65;;;;;;;47.32;10.80;100190.31;4736685;30;20528;-77
2022/08/17 09:42:58;;;;;;;8.55;3.45;;;;;;;46.88;11.30;100181.78;4752176;30;20052;-80
2022/08/17 09:45:27;;;;;;;6.10;3.65;;;;;;;46.22;11.55;100182.03;4753263;30;20044;-79
2022/08/17 09:48:07;;;;;;;;;;;;;;;45.63;11.73;100180.06;4737174;30;20052;-78
2022/08/17 09:51:00;;;;;;;5.50;3.15;;;;;;;45.72;11.81;100178.69;4737781;30;19922;-81
2022/08/17 09:53:26;;;;;;;7.13;3.28;;;;;;;45.32;11.80;100176.59;4753242;30;20132;-78
2022/08/17 09:55:58;;;;;;;8.85;3.20;;;;;;;45.47;12.18;100181.59;4738442;30;20136;-79
2022/08/17 09:58:30;;;;;;;8.80;4.00;;;;;;;45.52;11.68;100182.59;4752819;30;20056;-79
2022/08/17 10:01:14;;;;;;;5.93;3.67;;;;;;;45.20;12.04;100182.00;4739679;30;20367;-76
2022/08/17 10:03:56;;;;;;;8.85;3.50;;;;;;;45.00;12.33;100183.16;4761352;30;20417;-78
2022/08/17 10:06:46;;;;;;;7.18;3.58;;;;;;;44.80;11.93;100180.63;4750146;30;20048;-77
2022/08/17 10:09:28;;;;;;;5.70;3.47;;;;;;;44.90;12.34;100171.88;4745913;30;20052;-78
2022/08/17 10:12:22;;;;;;;7.55;3.33;;;;;;;45.62;12.28;100161.91;4762451;30;20052;-79
2022/08/17 10:15:05;;;;;;;5.90;3.58;;;;;;;46.11;11.74;100176.31;4761784;30;20051;-78
2022/08/17 10:17:49;;;;;;;8.48;3.55;;;;;;;45.61;11.68;100168.47;4774988;30;20094;-78
2022/08/17 10:20:29;;;;;;;5.32;3.30;;;;;;;44.90;12.69;100169.13;4750101;30;20052;-81
2022/08/17 10:26:11;;;;;;;7.63;3.80;;;;;;;45.84;11.74;100171.28;4744654;30;20044;-78
2022/08/17 10:28:54;;;;;;;7.28;3.83;;;;;;;44.86;12.29;100174.25;4750989;30;20048;-78
2022/08/17 10:31:31;;;;;;;9.75;4.55;;;;;;;43.78;13.12;100164.44;4751985;30;20059;-78
2022/08/17 10:34:06;;;;;;;7.82;4.65;;;;;;;44.75;12.44;100172.25;4754807;30;20059;-78
2022/08/17 10:36:54;;;;;;;5.78;4.00;;;;;;;44.10;12.53;100158.03;4753930;30;20055;-79
2022/08/17 10:39:41;;;;;;;12.38;4.90;;;;;;;42.67;13.41;100169.31;4753906;30;20405;-78
2022/08/17 10:42:35;;;;;;;12.68;4.53;;;;;;;41.01;14.84;100164.50;4737113;30;20617;-76
2022/08/17 10:45:12;;;;;;;8.50;4.80;;;;;;;39.57;15.79;100159.41;4753209;30;20099;-78
2022/08/17 10:47:58;;;;;;;5.97;4.60;;;;;;;38.41;16.33;100155.53;4721202;30;20131;-77
2022/08/17 10:50:54;;;;;;;8.68;4.97;;;;;;;37.32;17.44;100140.41;4751664;30;20505;-78
2022/08/17 10:53:32;;;;;;;5.82;4.50;;;;;;;37.06;17.89;100157.84;4749965;30;20528;-79
2022/08/17 11:00:00;;;;;;;6.28;4.80;;;;;;;35.28;19.43;100152.22;4735507;30;21927;-81
2022/08/17 11:02:39;;;;;;;9.02;4.85;;;;;;;34.94;20.19;100144.19;4736475;30;20051;-79
2022/08/17 11:05:27;;;;;;;8.82;5.05;;;;;;;34.72;20.38;100151.88;4752164;30;20095;-79
2022/08/17 11:08:13;;;;;;;9.73;4.70;;;;;;;34.63;21.10;100148.31;4754167;30;20060;-79
2022/08/17 11:10:57;;;;;;;6.15;4.65;;;;;;;34.57;21.25;100135.44;4744651;30;20276;-77
2022/08/17 11:13:36;;;;;;;7.55;4.55;;;;;;;34.48;20.64;100150.75;4751272;30;20048;-80
2022/08/17 11:16:07;;;;;;;9.32;4.90;;;;;;;34.15;21.67;100136.22;4752010;30;20099;-78
2022/08/17 11:18:52;;;;;;;6.18;4.35;;;;;;;34.09;21.68;100140.41;4751220;30;20074;-78
2022/08/17 11:21:37;;;;;;;8.52;5.40;;;;;;;33.89;22.06;100148.63;4743261;30;20047;-78
2022/08/17 11:24:19;;;;;;;12.55;5.90;;;;;;;33.47;22.38;100138.53;4751319;30;20079;-78
2022/08/17 11:27:21;;;;;;;11.90;6.47;;;;;;;33.19;22.61;100136.72;4749166;30;20055;-79
2022/08/17 11:29:57;;;;;;;9.57;6.80;;;;;;;33.04;23.02;100132.88;4751402;30;20052;-77
2022/08/17 11:32:29;;;;;;;11.90;6.78;;;;;;;32.94;23.04;100138.31;4750756;30;20078;-80
2022/08/17 11:35:20;;;;;;;8.82;6.88;;;;;;;32.99;22.66;100130.59;4737367;30;20584;-79
2022/08/17 11:38:09;;;;;;;7.15;6.43;;;;;;;32.90;23.08;100139.63;4750787;30;20070;-79
2022/08/17 11:40:39;;;;;;;9.52;6.53;;;;;;;32.74;22.86;100127.63;4752068;30;20517;-79
2022/08/17 11:43:28;;;;;;;9.20;5.60;;;;;;;32.59;23.57;100118.34;4753495;30;20055;-78
2022/08/17 11:46:21;;;;;;;6.82;5.80;;;;;;;32.50;23.50;100130.03;4734818;30;20048;-78
2022/08/17 11:52:00;;;;;;;10.23;7.32;;;;;;;32.56;23.73;100115.94;4734237;30;20135;-77
2022/08/17 11:54:29;;;;;;;8.48;7.68;;;;;;;32.54;23.50;100099.13;4724510;30;20094;-79
2022/08/17 11:56:58;;;;;;;10.73;7.18;;;;;;;32.46;23.32;100107.91;4736178;30;20082;-77
2022/08/17 11:59:35;;;;;;;10.43;7.10;;;;;;;32.27;23.44;100125.00;4751002;30;20136;-78
2022/08/17 12:02:18;;;;;;;7.22;6.55;;;;;;;31.99;23.97;100098.88;4752202;30;20051;-78
2022/08/17 12:05:22;;;;;;;11.60;7.65;;;;;;;31.99;24.48;100112.31;4736673;30;20383;-79
2022/08/17 12:08:16;;;;;;;11.20;6.88;;;;;;;31.95;23.95;100101.97;4740962;30;20107;-78
2022/08/17 12:11:18;;;;;;;10.50;7.03;;;;;;;32.00;24.36;100095.16;4760669;30;20040;-78
2022/08/17 12:13:54;;;;;;;13.27;6.82;;;;;;;31.97;24.48;100110.75;4736726;30;20051;-79
2022/08/17 12:16:20;;;;;;;8.00;5.80;;;;;;;31.63;24.53;100108.53;4732595;30;20105;-79
2022/08/17 12:19:01;;;;;;;12.50;6.68;;;;;;;31.42;25.14;100098.78;4751744;30;20055;-77
2022/08/17 12:21:45;;;;;;;14.70;6.90;;;;;;;31.27;25.07;100101.03;4720890;30;20048;-79